Time,TemperatureF,DewpointF,PressureIn,WindDirection,WindDirectionDegrees,WindSpeedMPH,WindSpeedGustMPH,Humidity,HourlyPrecipIn,Conditions,Clouds,dailyrainin,SoftwareType,DateUTC
2013-08-19 00:01:00,70.1,65.7,30.13,South,170,0.0,0.0,86,0.00,RA,,0.00,WeatherDisplay:10.37,2013-08-19 04:01:00,
2013-08-19 00:02:00,70.1,65.7,30.13,South,170,0.0,0.0,86,0.00,RA,,0.00,WeatherDisplay:10.37,2013-08-19 04:02:00,
2013-08-19 00:05:00,70.1,65.7,30.13,South,170,0.0,0.0,86,0.00,RA,,0.00,WeatherDisplay:10.37,2013-08-19 04:05:00,
2013-08-19 00:10:00,70.0,65.6,30.13,South,170,0.0,0.0,86,0.00,RA,,0.00,WeatherDisplay:10.37,2013-08-19 04:10:00,
2013-08-19 00:15:00,69.9,65.5,30.13,South,170,0.0,0.0,86,0.00,OVC,,0.00,WeatherDisplay:10.37,2013-08-19 04:15:00,
2013-08-19 00:20:00,69.9,65.5,30.13,South,170,2.0,2.0,86,0.00,OVC,,0.00,WeatherDisplay:10.37,2013-08-19 04:20:00,
2013-08-19 00:25:00,69.9,65.5,30.13,South,170,0.0,0.0,86,0.00,OVC,,0.00,WeatherDisplay:10.37,2013-08-19 04:25:00,
2013-08-19 00:30:00,70.0,65.6,30.13,South,170,1.1,1.1,86,0.00,OVC,,0.00,WeatherDisplay:10.37,2013-08-19 04:30:00,
2013-08-19 00:35:00,69.9,65.5,30.13,South,170,0.0,0.0,86,0.00,OVC,,0.00,WeatherDisplay:10.37,2013-08-19 04:35:00,
2013-08-19 00:40:00,69.9,65.5,30.13,South,170,4.6,0.0,86,0.00,OVC,,0.00,WeatherDisplay:10.37,2013-08-19 04:40:00,
2013-08-19 00:45:00,69.9,65.5,30.13,South,170,1.0,0.0,86,0.00,OVC,,0.00,WeatherDisplay:10.37,2013-08-19 04:45:00,
2013-08-19 00:50:00,69.8,65.4,30.13,South,170,0.0,0.0,86,0.00,OVC,,0.00,WeatherDisplay:10.37,2013-08-19 04:50:00,
2013-08-19 00:55:00,69.7,65.3,30.13,South,170,0.0,0.0,86,0.00,OVC,,0.00,WeatherDisplay:10.37,2013-08-19 04:55:00,
2013-08-19 01:00:00,69.6,65.2,30.13,South,170,0.0,0.0,86,0.00,OVC,,0.00,WeatherDisplay:10.37,2013-08-19 05:00:00,
2013-08-19 01:05:00,69.4,65.0,30.13,South,170,1.1,0.0,86,0.00,SCT,,0.00,WeatherDisplay:10.37,2013-08-19 05:05:00,
2013-08-19 01:10:00,69.4,65.0,30.13,South,170,0.0,0.0,86,0.00,SCT,,0.00,WeatherDisplay:10.37,2013-08-19 05:10:00,
2013-08-19 01:15:00,69.2,65.2,30.13,South,170,1.1,0.0,87,0.00,SCT,,0.00,WeatherDisplay:10.37,2013-08-19 05:15:00,
2013-08-19 01:20:00,69.1,65.1,30.13,South,170,1.1,1.1,87,0.00,SCT,,0.00,WeatherDisplay:10.37,2013-08-19 05:20:00,
2013-08-19 01:25:00,69.0,65.0,30.13,South,170,0.0,0.0,87,0.00,SCT,,0.00,WeatherDisplay:10.37,2013-08-19 05:25:00,
2013-08-19 01:30:00,68.8,64.8,30.12,South,170,0.0,0.0,87,0.00,SCT,,0.00,WeatherDisplay:10.37,2013-08-19 05:30:00,
2013-08-19 01:35:00,68.8,64.8,30.12,South,170,0.0,0.0,87,0.00,SCT,,0.00,WeatherDisplay:10.37,2013-08-19 05:35:00,
2013-08-19 01:40:00,68.7,65.0,30.12,South,170,2.3,2.3,88,0.00,SCT,,0.00,WeatherDisplay:10.37,2013-08-19 05:40:00,
2013-08-19 01:45:00,68.7,65.0,30.12,South,170,0.0,0.0,88,0.00,SCT,,0.00,WeatherDisplay:10.37,2013-08-19 05:45:00,
2013-08-19 01:50:00,68.6,64.9,30.12,South,170,1.1,1.1,88,0.00,SCT,,0.00,WeatherDisplay:10.37,2013-08-19 05:50:00,
2013-08-19 01:55:00,68.6,64.9,30.12,South,170,2.3,0.0,88,0.00,SCT,,0.00,WeatherDisplay:10.37,2013-08-19 05:55:00,
2013-08-19 02:00:00,68.6,65.2,30.12,South,170,5.0,5.0,89,0.00,SCT,,0.00,WeatherDisplay:10.37,2013-08-19 06:00:00,
2013-08-19 02:05:00,68.5,65.1,30.12,South,170,1.0,1.0,89,0.00,FEW,,0.00,WeatherDisplay:10.37,2013-08-19 06:05:00,
2013-08-19 02:10:00,68.5,65.1,30.12,South,170,0.0,0.0,89,0.00,FEW,,0.00,WeatherDisplay:10.37,2013-08-19 06:10:00,
2013-08-19 02:15:00,68.4,65.0,30.11,South,170,1.1,0.0,89,0.00,FEW,,0.00,WeatherDisplay:10.37,2013-08-19 06:15:00,
2013-08-19 02:20:00,68.4,65.0,30.11,South,170,1.1,1.1,89,0.00,FEW,,0.00,WeatherDisplay:10.37,2013-08-19 06:20:00,
2013-08-19 02:25:00,68.4,65.0,30.11,South,170,0.0,0.0,89,0.00,FEW,,0.00,WeatherDisplay:10.37,2013-08-19 06:25:00,
2013-08-19 02:30:00,68.4,65.0,30.11,South,170,1.1,0.0,89,0.00,FEW,,0.00,WeatherDisplay:10.37,2013-08-19 06:30:00,
2013-08-19 02:35:00,68.3,64.9,30.11,South,170,0.0,0.0,89,0.00,FEW,,0.00,WeatherDisplay:10.37,2013-08-19 06:35:00,
2013-08-19 02:40:00,68.3,64.9,30.11,South,170,0.0,0.0,89,0.00,FEW,,0.00,WeatherDisplay:10.37,2013-08-19 06:40:00,
2013-08-19 02:45:00,68.3,65.3,30.11,South,170,0.0,0.0,90,0.00,FEW,,0.00,WeatherDisplay:10.37,2013-08-19 06:45:00,
2013-08-19 02:50:00,68.1,65.1,30.11,South,170,0.0,0.0,90,0.00,FEW,,0.00,WeatherDisplay:10.37,2013-08-19 06:50:00,
2013-08-19 02:55:00,68.1,65.1,30.11,South,170,0.0,0.0,90,0.00,FEW,,0.00,WeatherDisplay:10.37,2013-08-19 06:55:00,
2013-08-19 03:00:00,67.9,64.9,30.11,South,170,0.0,0.0,90,0.00,FEW,,0.00,WeatherDisplay:10.37,2013-08-19 07:00:00,
2013-08-19 03:05:00,67.9,64.9,30.11,South,170,0.0,0.0,90,0.00,CLR,,0.00,WeatherDisplay:10.37,2013-08-19 07:05:00,
2013-08-19 03:10:00,67.8,64.8,30.11,South,170,0.0,0.0,90,0.00,CLR,,0.00,WeatherDisplay:10.37,2013-08-19 07:10:00,
2013-08-19 03:15:00,67.8,64.8,30.11,South,170,1.0,1.0,90,0.00,CLR,,0.00,WeatherDisplay:10.37,2013-08-19 07:15:00,
2013-08-19 03:20:00,67.8,64.8,30.11,South,170,0.0,0.0,90,0.00,CLR,,0.00,WeatherDisplay:10.37,2013-08-19 07:20:00,
2013-08-19 03:25:00,67.8,64.8,30.11,South,170,0.0,0.0,90,0.00,CLR,,0.00,WeatherDisplay:10.37,2013-08-19 07:25:00,
2013-08-19 03:30:00,67.7,64.7,30.11,South,170,0.0,0.0,90,0.00,CLR,,0.00,WeatherDisplay:10.37,2013-08-19 07:30:00,
2013-08-19 03:35:00,67.6,64.6,30.11,South,170,0.0,0.0,90,0.00,CLR,,0.00,WeatherDisplay:10.37,2013-08-19 07:35:00,
2013-08-19 03:40:00,67.5,64.5,30.11,South,170,0.0,0.0,90,0.00,CLR,,0.00,WeatherDisplay:10.37,2013-08-19 07:40:00,
2013-08-19 03:45:00,67.5,64.5,30.11,South,170,0.0,0.0,90,0.00,CLR,,0.00,WeatherDisplay:10.37,2013-08-19 07:45:00,
2013-08-19 03:50:00,67.5,64.5,30.11,South,170,0.0,0.0,90,0.00,CLR,,0.00,WeatherDisplay:10.37,2013-08-19 07:50:00,
2013-08-19 03:55:00,67.6,64.6,30.11,South,170,0.0,0.0,90,0.00,CLR,,0.00,WeatherDisplay:10.37,2013-08-19 07:55:00,
2013-08-19 04:00:00,67.6,64.6,30.11,South,170,0.0,0.0,90,0.00,CLR,,0.00,WeatherDisplay:10.37,2013-08-19 08:00:00,
2013-08-19 04:05:00,67.6,64.6,30.11,South,170,0.0,0.0,90,0.00,BKN,,0.00,WeatherDisplay:10.37,2013-08-19 08:05:00,
2013-08-19 04:10:00,67.6,64.6,30.11,South,170,0.0,0.0,90,0.00,BKN,,0.00,WeatherDisplay:10.37,2013-08-19 08:10:00,
2013-08-19 04:15:00,67.6,64.6,30.11,South,170,0.0,0.0,90,0.00,BKN,,0.00,WeatherDisplay:10.37,2013-08-19 08:15:00,
2013-08-19 04:20:00,67.7,64.7,30.11,South,170,0.0,0.0,90,0.00,BKN,,0.00,WeatherDisplay:10.37,2013-08-19 08:20:00,
2013-08-19 04:25:00,67.7,64.7,30.11,South,170,0.0,0.0,90,0.00,BKN,,0.00,WeatherDisplay:10.37,2013-08-19 08:25:00,
2013-08-19 04:30:00,67.7,64.7,30.11,South,170,0.0,0.0,90,0.00,BKN,,0.00,WeatherDisplay:10.37,2013-08-19 08:30:00,
2013-08-19 04:35:00,67.8,64.8,30.11,South,170,0.0,0.0,90,0.00,BKN,,0.00,WeatherDisplay:10.37,2013-08-19 08:35:00,
2013-08-19 04:40:00,67.8,64.8,30.11,South,170,0.0,0.0,90,0.00,BKN,,0.00,WeatherDisplay:10.37,2013-08-19 08:40:00,
2013-08-19 04:45:00,67.8,64.8,30.11,South,170,0.0,0.0,90,0.00,BKN,,0.00,WeatherDisplay:10.37,2013-08-19 08:45:00,
2013-08-19 04:50:00,67.8,64.8,30.11,South,170,0.0,0.0,90,0.00,BKN,,0.00,WeatherDisplay:10.37,2013-08-19 08:50:00,
2013-08-19 04:55:00,67.9,64.9,30.11,South,170,0.0,0.0,90,0.00,BKN,,0.00,WeatherDisplay:10.37,2013-08-19 08:55:00,
2013-08-19 05:00:00,67.9,64.9,30.11,South,170,0.0,0.0,90,0.00,BKN,,0.00,WeatherDisplay:10.37,2013-08-19 09:00:00,
2013-08-19 05:05:00,67.9,64.9,30.11,South,170,1.1,0.0,90,0.00,OVC,,0.00,WeatherDisplay:10.37,2013-08-19 09:05:00,
2013-08-19 05:10:00,67.9,64.9,30.11,South,170,0.0,0.0,90,0.00,OVC,,0.00,WeatherDisplay:10.37,2013-08-19 09:10:00,
2013-08-19 05:15:00,67.9,64.9,30.11,South,170,0.0,0.0,90,0.00,OVC,,0.00,WeatherDisplay:10.37,2013-08-19 09:15:00,
2013-08-19 05:20:00,67.9,64.9,30.11,South,170,0.0,0.0,90,0.00,OVC,,0.00,WeatherDisplay:10.37,2013-08-19 09:20:00,
2013-08-19 05:25:00,67.9,64.9,30.11,South,170,0.0,0.0,90,0.00,OVC,,0.00,WeatherDisplay:10.37,2013-08-19 09:25:00,
2013-08-19 05:30:00,67.9,64.9,30.11,South,170,0.0,0.0,90,0.00,OVC,,0.00,WeatherDisplay:10.37,2013-08-19 09:30:00,
2013-08-19 05:35:00,68.0,65.0,30.11,South,170,0.0,0.0,90,0.00,OVC,,0.00,WeatherDisplay:10.37,2013-08-19 09:35:00,
2013-08-19 05:40:00,68.0,65.0,30.11,South,170,0.0,0.0,90,0.00,OVC,,0.00,WeatherDisplay:10.37,2013-08-19 09:40:00,
2013-08-19 05:45:00,68.0,65.0,30.11,South,170,0.0,0.0,90,0.00,OVC,,0.00,WeatherDisplay:10.37,2013-08-19 09:45:00,
2013-08-19 05:50:00,68.0,65.0,30.12,South,170,1.1,0.0,90,0.00,OVC,,0.00,WeatherDisplay:10.37,2013-08-19 09:50:00,
2013-08-19 05:55:00,68.0,65.0,30.12,South,170,0.0,0.0,90,0.00,OVC,,0.00,WeatherDisplay:10.37,2013-08-19 09:55:00,
2013-08-19 06:00:00,68.0,65.0,30.12,South,170,0.0,0.0,90,0.00,OVC,,0.00,WeatherDisplay:10.37,2013-08-19 10:00:00,
2013-08-19 06:05:00,68.0,65.0,30.11,South,170,0.0,0.0,90,0.00,OVC,,0.00,WeatherDisplay:10.37,2013-08-19 10:05:00,
2013-08-19 06:10:00,68.0,65.0,30.11,South,170,0.0,0.0,90,0.00,OVC,,0.00,WeatherDisplay:10.37,2013-08-19 10:10:00,
2013-08-19 06:15:00,68.0,65.0,30.12,South,170,0.0,0.0,90,0.00,OVC,,0.00,WeatherDisplay:10.37,2013-08-19 10:15:00,
2013-08-19 06:20:00,67.9,64.9,30.12,South,170,0.0,0.0,90,0.00,OVC,,0.00,WeatherDisplay:10.37,2013-08-19 10:20:00,
2013-08-19 06:25:00,67.8,64.8,30.12,South,170,0.0,0.0,90,0.00,OVC,,0.00,WeatherDisplay:10.37,2013-08-19 10:25:00,
2013-08-19 06:30:00,67.8,64.8,30.12,South,170,0.0,0.0,90,0.00,OVC,,0.00,WeatherDisplay:10.37,2013-08-19 10:30:00,
2013-08-19 06:35:00,67.7,64.7,30.12,South,170,0.0,0.0,90,0.00,OVC,,0.00,WeatherDisplay:10.37,2013-08-19 10:35:00,
2013-08-19 06:40:00,67.6,64.6,30.12,South,170,0.0,0.0,90,0.00,OVC,,0.00,WeatherDisplay:10.37,2013-08-19 10:40:00,
2013-08-19 06:45:00,67.6,64.6,30.12,South,170,0.0,0.0,90,0.00,OVC,,0.00,WeatherDisplay:10.37,2013-08-19 10:45:00,
2013-08-19 06:50:00,67.6,64.6,30.12,South,170,0.0,0.0,90,0.00,OVC,,0.00,WeatherDisplay:10.37,2013-08-19 10:50:00,
2013-08-19 06:55:00,67.5,64.5,30.12,South,170,0.0,0.0,90,0.00,OVC,,0.00,WeatherDisplay:10.37,2013-08-19 10:55:00,
2013-08-19 07:00:00,67.3,64.3,30.12,South,170,0.0,0.0,90,0.00,OVC,,0.00,WeatherDisplay:10.37,2013-08-19 11:00:00,
2013-08-19 07:05:00,67.2,64.2,30.12,South,170,0.0,0.0,90,0.00,FEW,,0.00,WeatherDisplay:10.37,2013-08-19 11:05:00,
2013-08-19 07:10:00,67.1,64.1,30.13,South,170,0.0,0.0,90,0.00,FEW,,0.00,WeatherDisplay:10.37,2013-08-19 11:10:00,
2013-08-19 07:15:00,67.1,64.1,30.12,South,170,0.0,0.0,90,0.00,FEW,,0.00,WeatherDisplay:10.37,2013-08-19 11:15:00,
2013-08-19 07:20:00,67.2,64.2,30.12,South,170,0.0,0.0,90,0.00,FEW,,0.00,WeatherDisplay:10.37,2013-08-19 11:20:00,
2013-08-19 07:25:00,67.2,64.2,30.12,South,170,0.0,0.0,90,0.00,FEW,,0.00,WeatherDisplay:10.37,2013-08-19 11:25:00,
2013-08-19 07:30:00,67.3,64.3,30.12,South,170,0.0,0.0,90,0.00,FEW,,0.00,WeatherDisplay:10.37,2013-08-19 11:30:00,
2013-08-19 07:35:00,67.3,64.3,30.12,South,170,0.0,0.0,90,0.00,FEW,,0.00,WeatherDisplay:10.37,2013-08-19 11:35:00,
2013-08-19 07:40:00,67.3,64.3,30.12,South,170,0.0,0.0,90,0.00,FEW,,0.00,WeatherDisplay:10.37,2013-08-19 11:40:00,
2013-08-19 07:45:00,67.4,64.4,30.12,South,170,0.0,0.0,90,0.00,FEW,,0.00,WeatherDisplay:10.37,2013-08-19 11:45:00,
2013-08-19 07:50:00,67.4,64.4,30.12,South,170,0.0,0.0,90,0.00,FEW,,0.00,WeatherDisplay:10.37,2013-08-19 11:50:00,
2013-08-19 07:55:00,67.5,64.5,30.12,South,170,0.0,0.0,90,0.00,FEW,,0.00,WeatherDisplay:10.37,2013-08-19 11:55:00,
2013-08-19 08:00:00,67.6,64.6,30.13,South,170,0.0,0.0,90,0.00,FEW,,0.00,WeatherDisplay:10.37,2013-08-19 12:00:00,
2013-08-19 08:05:00,67.8,64.8,30.13,South,170,0.0,0.0,90,0.00,CLR,,0.00,WeatherDisplay:10.37,2013-08-19 12:05:00,
2013-08-19 08:10:00,67.9,64.9,30.13,South,170,0.0,0.0,90,0.00,CLR,,0.00,WeatherDisplay:10.37,2013-08-19 12:10:00,
2013-08-19 08:15:00,68.0,65.0,30.13,South,170,4.0,4.0,90,0.00,CLR,,0.00,WeatherDisplay:10.37,2013-08-19 12:15:00,
2013-08-19 08:20:00,68.0,65.0,30.13,South,170,1.1,0.0,90,0.00,CLR,,0.00,WeatherDisplay:10.37,2013-08-19 12:20:00,
2013-08-19 08:25:00,68.0,65.0,30.13,South,170,1.1,1.1,90,0.00,CLR,,0.00,WeatherDisplay:10.37,2013-08-19 12:25:00,
2013-08-19 08:30:00,67.9,64.9,30.13,South,170,0.0,0.0,90,0.00,CLR,,0.00,WeatherDisplay:10.37,2013-08-19 12:30:00,
2013-08-19 08:35:00,68.0,65.0,30.14,South,170,0.0,0.0,90,0.00,CLR,,0.00,WeatherDisplay:10.37,2013-08-19 12:35:00,
2013-08-19 08:40:00,68.0,65.0,30.14,South,170,0.0,0.0,90,0.00,CLR,,0.00,WeatherDisplay:10.37,2013-08-19 12:40:00,
2013-08-19 08:45:00,68.1,65.1,30.13,South,170,0.0,0.0,90,0.00,CLR,,0.00,WeatherDisplay:10.37,2013-08-19 12:45:00,
2013-08-19 08:50:00,68.2,65.2,30.13,South,170,0.0,0.0,90,0.00,CLR,,0.00,WeatherDisplay:10.37,2013-08-19 12:50:00,
2013-08-19 08:55:00,68.4,65.4,30.13,South,170,0.0,0.0,90,0.00,CLR,,0.00,WeatherDisplay:10.37,2013-08-19 12:55:00,
2013-08-19 09:00:00,68.6,65.5,30.13,South,170,0.0,0.0,90,0.00,CLR,,0.00,WeatherDisplay:10.37,2013-08-19 13:00:00,
2013-08-19 09:05:00,68.8,65.7,30.13,South,170,2.3,2.3,90,0.00,CLR,,0.00,WeatherDisplay:10.37,2013-08-19 13:05:00,
2013-08-19 09:10:00,69.0,65.9,30.13,South,170,1.0,1.0,90,0.00,CLR,,0.00,WeatherDisplay:10.37,2013-08-19 13:10:00,
2013-08-19 09:15:00,69.4,66.3,30.13,South,170,2.3,0.0,90,0.00,CLR,,0.00,WeatherDisplay:10.37,2013-08-19 13:15:00,
2013-08-19 09:20:00,69.6,66.5,30.13,South,170,1.1,1.1,90,0.00,CLR,,0.00,WeatherDisplay:10.37,2013-08-19 13:20:00,
2013-08-19 09:25:00,69.9,66.8,30.13,South,170,0.0,0.0,90,0.00,CLR,,0.00,WeatherDisplay:10.37,2013-08-19 13:25:00,
2013-08-19 09:30:00,70.4,67.3,30.13,South,170,1.0,1.0,90,0.00,CLR,,0.00,WeatherDisplay:10.37,2013-08-19 13:30:00,
2013-08-19 09:35:00,70.8,67.7,30.12,South,170,0.0,0.0,90,0.00,CLR,,0.00,WeatherDisplay:10.37,2013-08-19 13:35:00,
2013-08-19 09:41:00,71.4,68.3,30.12,South,170,1.1,1.1,90,0.00,CLR,,0.00,WeatherDisplay:10.37,2013-08-19 13:41:00,
2013-08-19 09:46:00,71.8,68.7,30.12,South,170,2.3,2.3,90,0.00,CLR,,0.00,WeatherDisplay:10.37,2013-08-19 13:46:00,
2013-08-19 09:51:00,72.1,68.3,30.12,South,170,4.0,4.0,88,0.00,CLR,,0.00,WeatherDisplay:10.37,2013-08-19 13:51:00,
2013-08-19 09:56:00,72.4,68.3,30.12,South,170,2.0,2.0,87,0.00,CLR,,0.00,WeatherDisplay:10.37,2013-08-19 13:56:00,
2013-08-19 10:01:00,73.0,68.6,30.12,South,170,5.0,5.0,86,0.00,CLR,,0.00,WeatherDisplay:10.37,2013-08-19 14:01:00,
2013-08-19 10:06:00,73.4,67.9,30.13,South,170,2.0,2.0,83,0.00,-RA,,0.00,WeatherDisplay:10.37,2013-08-19 14:06:00,
2013-08-19 10:11:00,73.8,68.3,30.12,South,170,0.0,0.0,83,0.00,-RA,,0.00,WeatherDisplay:10.37,2013-08-19 14:11:00,
2013-08-19 10:16:00,74.1,67.9,30.13,South,170,2.3,2.3,81,0.00,-RA,,0.00,WeatherDisplay:10.37,2013-08-19 14:16:00,
2013-08-19 10:21:00,74.7,68.5,30.13,South,170,1.0,0.0,81,0.00,-RA,,0.00,WeatherDisplay:10.37,2013-08-19 14:21:00,
2013-08-19 10:26:00,74.9,67.9,30.13,SSE,164,2.3,0.0,79,0.00,-RA,,0.00,WeatherDisplay:10.37,2013-08-19 14:26:00,
2013-08-19 10:31:00,75.3,68.3,30.13,SSE,164,1.1,0.0,79,0.00,-RA,,0.00,WeatherDisplay:10.37,2013-08-19 14:31:00,
2013-08-19 10:36:00,75.5,68.2,30.13,SSE,164,1.0,1.0,78,0.00,-RA,,0.00,WeatherDisplay:10.37,2013-08-19 14:36:00,
2013-08-19 10:41:00,75.3,67.6,30.13,SSE,165,0.0,0.0,77,0.00,-RA,,0.00,WeatherDisplay:10.37,2013-08-19 14:41:00,
2013-08-19 10:46:00,75.1,67.4,30.13,SSE,164,0.0,0.0,77,0.00,-RA,,0.00,WeatherDisplay:10.37,2013-08-19 14:46:00,
2013-08-19 10:51:00,75.1,67.8,30.13,SSE,165,0.0,0.0,78,0.00,-RA,,0.00,WeatherDisplay:10.37,2013-08-19 14:51:00,
2013-08-19 10:56:00,75.2,67.9,30.13,SSE,165,0.0,0.0,78,0.00,-RA,,0.00,WeatherDisplay:10.37,2013-08-19 14:56:00,
2013-08-19 11:01:00,75.4,68.1,30.13,SSE,165,1.1,0.0,78,0.00,-RA,,0.00,WeatherDisplay:10.37,2013-08-19 15:01:00,
2013-08-19 11:06:00,75.4,67.7,30.14,SSE,165,2.0,2.0,77,0.00,BKN,,0.00,WeatherDisplay:10.37,2013-08-19 15:06:00,
2013-08-19 11:11:00,75.4,67.7,30.14,SSE,165,2.3,2.3,77,0.00,BKN,,0.00,WeatherDisplay:10.37,2013-08-19 15:11:00,
2013-08-19 11:16:00,75.7,68.0,30.14,SSE,165,4.0,4.0,77,0.00,BKN,,0.00,WeatherDisplay:10.37,2013-08-19 15:16:00,
2013-08-19 11:21:00,76.6,68.5,30.14,SSE,165,1.1,0.0,76,0.00,BKN,,0.00,WeatherDisplay:10.37,2013-08-19 15:21:00,
2013-08-19 11:27:00,77.2,68.3,30.14,SSE,164,0.0,0.0,74,0.00,BKN,,0.00,WeatherDisplay:10.37,2013-08-19 15:27:00,
2013-08-19 11:32:00,77.6,68.7,30.14,SSE,166,2.0,2.0,74,0.00,BKN,,0.00,WeatherDisplay:10.37,2013-08-19 15:32:00,
2013-08-19 11:37:00,77.5,68.2,30.14,SSE,167,2.3,2.3,73,0.00,BKN,,0.00,WeatherDisplay:10.37,2013-08-19 15:37:00,
2013-08-19 11:42:00,77.1,67.8,30.14,SSE,168,2.3,2.3,73,0.00,BKN,,0.00,WeatherDisplay:10.37,2013-08-19 15:42:00,
2013-08-19 11:47:00,76.7,67.4,30.14,SSE,164,5.0,5.0,73,0.00,BKN,,0.00,WeatherDisplay:10.37,2013-08-19 15:47:00,
2013-08-19 11:52:00,76.4,67.1,30.14,SSE,165,3.5,3.5,73,0.00,BKN,,0.00,WeatherDisplay:10.37,2013-08-19 15:52:00,
2013-08-19 11:57:00,76.2,67.3,30.14,SSE,164,0.0,0.0,74,0.00,BKN,,0.00,WeatherDisplay:10.37,2013-08-19 15:57:00,
2013-08-19 12:02:00,76.4,67.5,30.14,SSE,165,0.0,0.0,74,0.00,BKN,,0.00,WeatherDisplay:10.37,2013-08-19 16:02:00,
2013-08-19 12:07:00,76.7,67.4,30.13,SSE,164,1.1,1.1,73,0.00,BKN,,0.00,WeatherDisplay:10.37,2013-08-19 16:07:00,
2013-08-19 12:12:00,77.3,67.6,30.13,SSE,165,0.0,0.0,72,0.00,BKN,,0.00,WeatherDisplay:10.37,2013-08-19 16:12:00,
2013-08-19 12:17:00,78.0,67.8,30.13,SSE,165,0.0,0.0,71,0.00,BKN,,0.00,WeatherDisplay:10.37,2013-08-19 16:17:00,
2013-08-19 12:22:00,77.8,68.4,30.13,SSE,166,5.8,5.8,73,0.00,BKN,,0.00,WeatherDisplay:10.37,2013-08-19 16:22:00,
2013-08-19 12:27:00,77.3,67.6,30.13,South,180,5.8,5.8,72,0.00,BKN,,0.00,WeatherDisplay:10.37,2013-08-19 16:27:00,
2013-08-19 12:32:00,76.9,67.6,30.13,South,180,1.1,0.0,73,0.00,BKN,,0.00,WeatherDisplay:10.37,2013-08-19 16:32:00,
2013-08-19 12:37:00,77.0,67.7,30.13,South,180,1.0,1.0,73,0.00,BKN,,0.00,WeatherDisplay:10.37,2013-08-19 16:37:00,
2013-08-19 12:42:00,77.4,68.1,30.12,South,180,3.5,3.5,73,0.00,BKN,,0.00,WeatherDisplay:10.37,2013-08-19 16:42:00,
2013-08-19 12:47:00,77.4,67.7,30.12,South,180,0.0,0.0,72,0.00,BKN,,0.00,WeatherDisplay:10.37,2013-08-19 16:47:00,
2013-08-19 12:52:00,77.8,68.0,30.12,South,180,1.0,0.0,72,0.00,BKN,,0.00,WeatherDisplay:10.37,2013-08-19 16:52:00,
2013-08-19 12:57:00,78.7,68.9,30.12,South,180,1.0,1.0,72,0.00,BKN,,0.00,WeatherDisplay:10.37,2013-08-19 16:57:00,
2013-08-19 13:02:00,79.9,68.4,30.12,South,180,2.0,2.0,68,0.00,OVC,,0.00,WeatherDisplay:10.37,2013-08-19 17:02:00,
2013-08-19 13:07:00,80.0,68.1,30.12,South,180,5.0,5.0,67,0.00,OVC,,0.00,WeatherDisplay:10.37,2013-08-19 17:07:00,
2013-08-19 13:12:00,80.1,67.7,30.12,South,191,5.8,5.8,66,0.00,OVC,,0.00,WeatherDisplay:10.37,2013-08-19 17:12:00,
2013-08-19 13:17:00,80.6,69.1,30.11,South,191,5.8,5.8,68,0.00,OVC,,0.00,WeatherDisplay:10.37,2013-08-19 17:17:00,
2013-08-19 13:23:00,81.6,68.7,30.11,South,191,3.5,3.5,65,0.00,OVC,,0.00,WeatherDisplay:10.37,2013-08-19 17:23:00,
2013-08-19 13:28:00,81.9,68.1,30.11,SSW,202,6.0,6.0,63,0.00,OVC,,0.00,WeatherDisplay:10.37,2013-08-19 17:28:00,
2013-08-19 13:33:00,81.9,67.1,30.11,SSW,207,1.1,1.1,61,0.00,OVC,,0.00,WeatherDisplay:10.37,2013-08-19 17:33:00,
2013-08-19 13:38:00,82.3,68.4,30.11,SSW,205,4.0,4.0,63,0.00,OVC,,0.00,WeatherDisplay:10.37,2013-08-19 17:38:00,
2013-08-19 13:43:00,83.1,68.7,30.11,SSW,205,1.1,0.0,62,0.00,OVC,,0.00,WeatherDisplay:10.37,2013-08-19 17:43:00,
2013-08-19 13:48:00,83.7,69.8,30.11,SSW,205,1.1,0.0,63,0.00,OVC,,0.00,WeatherDisplay:10.37,2013-08-19 17:48:00,
2013-08-19 13:53:00,83.6,69.2,30.10,SSW,205,2.0,2.0,62,0.00,OVC,,0.00,WeatherDisplay:10.37,2013-08-19 17:53:00,
2013-08-19 13:58:00,82.2,67.4,30.10,SW,214,4.0,4.0,61,0.00,OVC,,0.00,WeatherDisplay:10.37,2013-08-19 17:58:00,
2013-08-19 14:03:00,81.6,67.8,30.10,SW,214,0.0,0.0,63,0.00,FEW,,0.00,WeatherDisplay:10.37,2013-08-19 18:03:00,
2013-08-19 14:08:00,81.4,68.1,30.10,SW,214,0.0,0.0,64,0.00,FEW,,0.00,WeatherDisplay:10.37,2013-08-19 18:08:00,
2013-08-19 14:13:00,81.0,68.1,30.10,SW,214,0.0,0.0,65,0.00,FEW,,0.00,WeatherDisplay:10.37,2013-08-19 18:13:00,
2013-08-19 14:18:00,80.4,67.6,30.10,SW,214,2.3,2.3,65,0.00,FEW,,0.00,WeatherDisplay:10.37,2013-08-19 18:18:00,
2013-08-19 14:23:00,80.6,68.2,30.10,SW,214,1.1,1.1,66,0.00,FEW,,0.00,WeatherDisplay:10.37,2013-08-19 18:23:00,
2013-08-19 14:28:00,80.7,67.4,30.10,SW,214,2.3,0.0,64,0.00,FEW,,0.00,WeatherDisplay:10.37,2013-08-19 18:28:00,
2013-08-19 14:33:00,80.8,67.9,30.10,SW,214,1.0,1.0,65,0.00,FEW,,0.00,WeatherDisplay:10.37,2013-08-19 18:33:00,
2013-08-19 14:38:00,80.6,67.7,30.10,SW,214,0.0,0.0,65,0.00,FEW,,0.00,WeatherDisplay:10.37,2013-08-19 18:38:00,
2013-08-19 14:43:00,80.2,69.5,30.10,South,182,5.0,5.0,70,0.04,RA,,0.07,WeatherDisplay:10.37,2013-08-19 18:43:00,
2013-08-19 14:48:00,77.7,68.4,30.10,South,182,2.3,2.3,73,0.15,RA,,0.15,WeatherDisplay:10.37,2013-08-19 18:48:00,
2013-08-19 14:53:00,75.8,66.9,30.10,South,180,1.1,1.1,74,0.16,RA,,0.16,WeatherDisplay:10.37,2013-08-19 18:53:00,
2013-08-19 14:58:00,74.3,66.6,30.10,South,176,1.1,1.1,77,0.17,RA,,0.17,WeatherDisplay:10.37,2013-08-19 18:58:00,
2013-08-19 15:03:00,73.5,66.9,30.09,South,176,1.1,0.0,80,0.18,RA,,0.18,WeatherDisplay:10.37,2013-08-19 19:03:00,
2013-08-19 15:08:00,73.2,67.0,30.10,South,176,0.0,0.0,81,0.18,RA,,0.18,WeatherDisplay:10.37,2013-08-19 19:08:00,
2013-08-19 15:13:00,73.2,67.4,30.10,South,175,2.0,2.0,82,0.18,BKN,,0.18,WeatherDisplay:10.37,2013-08-19 19:13:00,
2013-08-19 15:18:00,73.1,67.3,30.10,South,176,2.0,2.0,82,0.18,BKN,,0.18,WeatherDisplay:10.37,2013-08-19 19:18:00,
2013-08-19 15:23:00,73.0,67.2,30.10,South,176,1.1,0.0,82,0.19,RA,,0.19,WeatherDisplay:10.37,2013-08-19 19:23:00,
2013-08-19 15:28:00,73.0,67.5,30.10,South,174,2.3,2.3,83,0.19,RA,,0.19,WeatherDisplay:10.37,2013-08-19 19:28:00,
2013-08-19 15:33:00,72.6,66.8,30.10,South,174,1.1,0.0,82,0.30,RA,,0.31,WeatherDisplay:10.37,2013-08-19 19:33:00,
2013-08-19 15:38:00,72.1,66.6,30.09,SSE,167,6.0,6.0,83,0.33,RA,,0.33,WeatherDisplay:10.37,2013-08-19 19:38:00,
2013-08-19 15:43:00,71.9,66.5,30.09,SSE,148,4.0,4.0,83,0.25,RA,,0.33,WeatherDisplay:10.37,2013-08-19 19:43:00,
2013-08-19 15:48:00,72.0,66.9,30.09,SSE,147,4.0,4.0,84,0.18,BKN,,0.33,WeatherDisplay:10.37,2013-08-19 19:48:00,
2013-08-19 15:53:00,72.0,67.2,30.09,SE,145,1.1,1.1,85,0.18,RA,,0.34,WeatherDisplay:10.37,2013-08-19 19:53:00,
2013-08-19 15:58:00,72.0,67.2,30.09,SE,145,0.0,0.0,85,0.18,RA,,0.35,WeatherDisplay:10.37,2013-08-19 19:58:00,
2013-08-19 16:04:00,72.1,67.3,30.09,SE,143,5.0,5.0,85,0.17,RA,,0.35,WeatherDisplay:10.37,2013-08-19 20:04:00,
2013-08-19 16:09:00,72.1,67.3,30.09,SE,143,1.0,0.0,85,0.17,OVC,,0.35,WeatherDisplay:10.37,2013-08-19 20:09:00,
2013-08-19 16:14:00,72.3,67.9,30.09,SE,143,0.0,0.0,86,0.17,OVC,,0.35,WeatherDisplay:10.37,2013-08-19 20:14:00,
2013-08-19 16:19:00,72.5,68.4,30.09,SE,143,0.0,0.0,87,0.18,RA,,0.36,WeatherDisplay:10.37,2013-08-19 20:19:00,
2013-08-19 16:24:00,72.8,68.7,30.09,SE,143,0.0,0.0,87,0.17,RA,,0.36,WeatherDisplay:10.37,2013-08-19 20:24:00,
2013-08-19 16:29:00,72.9,68.8,30.09,SE,143,1.1,0.0,87,0.18,RA,,0.37,WeatherDisplay:10.37,2013-08-19 20:29:00,
2013-08-19 16:35:00,73.1,69.3,30.08,SE,143,0.0,0.0,88,0.05,RA,,0.37,WeatherDisplay:10.37,2013-08-19 20:35:00,
2013-08-19 16:40:00,73.5,69.8,30.08,SE,143,0.0,2.0,88,0.00,OVC,,0.37,WeatherDisplay:10.37,2013-08-19 20:40:00,
2013-08-19 16:45:00,73.9,70.1,30.08,SE,143,1.1,1.1,88,0.04,OVC,,0.37,WeatherDisplay:10.37,2013-08-19 20:45:00,
2013-08-19 16:50:00,74.6,70.8,30.08,SE,143,0.0,0.0,88,0.04,OVC,,0.37,WeatherDisplay:10.37,2013-08-19 20:50:00,
2013-08-19 16:56:00,75.0,70.5,30.08,SE,143,2.3,2.3,86,0.03,OVC,,0.37,WeatherDisplay:10.37,2013-08-19 20:56:00,
2013-08-19 17:01:00,75.9,70.7,30.07,SE,143,0.0,0.0,84,0.02,OVC,,0.37,WeatherDisplay:10.37,2013-08-19 21:01:00,
2013-08-19 17:06:00,76.5,70.2,30.08,SE,143,1.1,0.0,81,0.02,OVC,,0.37,WeatherDisplay:10.37,2013-08-19 21:06:00,
2013-08-19 17:11:00,77.0,70.0,30.08,SE,143,0.0,0.0,79,0.02,OVC,,0.37,WeatherDisplay:10.37,2013-08-19 21:11:00,
2013-08-19 17:16:00,77.3,70.6,30.07,SE,143,0.0,0.0,80,0.01,OVC,,0.37,WeatherDisplay:10.37,2013-08-19 21:16:00,
2013-08-19 17:21:00,77.5,70.5,30.07,SE,143,0.0,0.0,79,0.01,OVC,,0.37,WeatherDisplay:10.37,2013-08-19 21:21:00,
2013-08-19 17:26:00,77.7,68.7,30.07,SE,143,4.0,4.0,74,0.00,OVC,,0.37,WeatherDisplay:10.37,2013-08-19 21:26:00,
2013-08-19 17:31:00,77.7,68.7,30.07,SE,143,2.3,2.3,74,0.00,OVC,,0.37,WeatherDisplay:10.37,2013-08-19 21:31:00,
2013-08-19 17:36:00,77.7,69.1,30.06,SE,143,3.5,0.0,75,0.00,OVC,,0.37,WeatherDisplay:10.37,2013-08-19 21:36:00,
2013-08-19 17:41:00,77.9,69.7,30.06,SE,143,0.0,0.0,76,0.00,OVC,,0.37,WeatherDisplay:10.37,2013-08-19 21:41:00,
2013-08-19 17:46:00,78.0,69.8,30.06,SE,141,4.6,4.6,76,0.00,OVC,,0.37,WeatherDisplay:10.37,2013-08-19 21:46:00,
2013-08-19 17:51:00,77.8,69.2,30.06,SE,142,3.5,3.5,75,0.00,OVC,,0.37,WeatherDisplay:10.37,2013-08-19 21:51:00,
2013-08-19 17:56:00,77.6,67.9,30.06,SE,142,3.5,3.5,72,0.00,OVC,,0.37,WeatherDisplay:10.37,2013-08-19 21:56:00,
2013-08-19 18:01:00,78.1,68.7,30.06,SE,142,2.3,2.3,73,0.00,OVC,,0.37,WeatherDisplay:10.37,2013-08-19 22:01:00,
2013-08-19 18:07:00,79.1,68.5,30.06,SE,141,2.3,0.0,70,0.00,OVC,,0.37,WeatherDisplay:10.37,2013-08-19 22:07:00,
2013-08-19 18:12:00,79.8,68.3,30.06,SE,142,1.1,0.0,68,0.00,OVC,,0.37,WeatherDisplay:10.37,2013-08-19 22:12:00,
2013-08-19 18:17:00,80.5,68.1,30.06,SE,141,2.3,2.3,66,0.00,OVC,,0.37,WeatherDisplay:10.37,2013-08-19 22:17:00,
2013-08-19 18:22:00,81.1,67.8,30.06,SE,141,1.1,1.1,64,0.00,OVC,,0.37,WeatherDisplay:10.37,2013-08-19 22:22:00,
2013-08-19 18:27:00,81.4,68.1,30.06,SE,142,1.1,1.1,64,0.00,OVC,,0.37,WeatherDisplay:10.37,2013-08-19 22:27:00,
2013-08-19 18:32:00,81.4,68.1,30.06,SE,142,2.3,2.3,64,0.00,OVC,,0.37,WeatherDisplay:10.37,2013-08-19 22:32:00,
2013-08-19 18:37:00,81.2,68.3,30.06,SE,141,1.1,1.1,65,0.00,OVC,,0.37,WeatherDisplay:10.37,2013-08-19 22:37:00,
2013-08-19 18:42:00,81.4,68.5,30.06,SE,142,4.0,4.0,65,0.00,OVC,,0.37,WeatherDisplay:10.37,2013-08-19 22:42:00,
2013-08-19 18:47:00,81.4,68.5,30.06,SE,141,0.0,0.0,65,0.00,OVC,,0.37,WeatherDisplay:10.37,2013-08-19 22:47:00,
2013-08-19 18:52:00,81.3,68.0,30.06,SE,142,5.0,5.0,64,0.00,OVC,,0.37,WeatherDisplay:10.37,2013-08-19 22:52:00,
2013-08-19 18:57:00,81.1,68.7,30.06,SE,141,2.3,2.3,66,0.00,OVC,,0.37,WeatherDisplay:10.37,2013-08-19 22:57:00,
2013-08-19 19:02:00,81.0,69.0,30.06,SE,141,5.0,5.0,67,0.00,OVC,,0.37,WeatherDisplay:10.37,2013-08-19 23:02:00,
2013-08-19 19:07:00,80.7,68.7,30.06,SE,136,1.1,1.1,67,0.00,CLR,,0.37,WeatherDisplay:10.37,2013-08-19 23:07:00,
2013-08-19 19:12:00,80.4,68.4,30.06,SE,130,4.0,4.0,67,0.00,CLR,,0.37,WeatherDisplay:10.37,2013-08-19 23:12:00,
2013-08-19 19:17:00,80.3,68.3,30.06,SE,130,1.1,0.0,67,0.00,CLR,,0.37,WeatherDisplay:10.37,2013-08-19 23:17:00,
2013-08-19 19:22:00,80.2,67.8,30.06,SE,129,0.0,0.0,66,0.00,CLR,,0.37,WeatherDisplay:10.37,2013-08-19 23:22:00,
2013-08-19 19:27:00,80.1,68.2,30.06,SE,130,1.1,1.1,67,0.00,CLR,,0.37,WeatherDisplay:10.37,2013-08-19 23:27:00,
2013-08-19 19:32:00,79.9,68.0,30.06,SE,130,1.1,1.1,67,0.00,CLR,,0.37,WeatherDisplay:10.37,2013-08-19 23:32:00,
2013-08-19 19:37:00,79.7,67.8,30.05,SE,129,1.0,1.0,67,0.00,CLR,,0.37,WeatherDisplay:10.37,2013-08-19 23:37:00,
2013-08-19 19:42:00,79.5,68.0,30.06,SE,130,1.1,1.1,68,0.00,CLR,,0.37,WeatherDisplay:10.37,2013-08-19 23:42:00,
2013-08-19 19:47:00,79.3,67.8,30.06,SE,129,1.1,0.0,68,0.00,CLR,,0.37,WeatherDisplay:10.37,2013-08-19 23:47:00,
2013-08-19 19:52:00,79.1,68.1,30.06,SE,130,0.0,0.0,69,0.00,CLR,,0.37,WeatherDisplay:10.37,2013-08-19 23:52:00,
2013-08-19 19:57:00,78.8,67.8,30.06,SE,130,4.0,4.0,69,0.00,CLR,,0.37,WeatherDisplay:10.37,2013-08-19 23:57:00,
2013-08-19 20:02:00,78.5,67.9,30.06,SE,130,1.1,1.1,70,0.00,CLR,,0.37,WeatherDisplay:10.37,2013-08-20 00:02:00,
2013-08-19 20:07:00,78.1,67.5,30.06,SE,129,2.3,2.3,70,0.00,CLR,,0.37,WeatherDisplay:10.37,2013-08-20 00:07:00,
2013-08-19 20:12:00,77.8,67.6,30.06,SE,130,2.0,2.0,71,0.00,CLR,,0.37,WeatherDisplay:10.37,2013-08-20 00:12:00,
2013-08-19 20:17:00,77.4,67.3,30.06,SE,129,1.1,1.1,71,0.00,CLR,,0.37,WeatherDisplay:10.37,2013-08-20 00:17:00,
2013-08-19 20:22:00,77.1,67.4,30.06,SE,129,0.0,0.0,72,0.00,CLR,,0.37,WeatherDisplay:10.37,2013-08-20 00:22:00,
2013-08-19 20:27:00,76.8,67.5,30.06,SE,130,1.1,0.0,73,0.00,CLR,,0.37,WeatherDisplay:10.37,2013-08-20 00:27:00,
2013-08-19 20:32:00,76.5,67.2,30.06,SE,130,0.0,0.0,73,0.00,CLR,,0.37,WeatherDisplay:10.37,2013-08-20 00:32:00,
2013-08-19 20:37:00,76.1,67.2,30.06,SE,130,1.0,1.0,74,0.00,CLR,,0.37,WeatherDisplay:10.37,2013-08-20 00:37:00,
2013-08-19 20:42:00,75.8,67.3,30.07,SE,130,0.0,0.0,75,0.00,CLR,,0.37,WeatherDisplay:10.37,2013-08-20 00:42:00,
2013-08-19 20:47:00,75.5,67.4,30.07,SE,129,0.0,0.0,76,0.00,CLR,,0.37,WeatherDisplay:10.37,2013-08-20 00:47:00,
2013-08-19 20:52:00,75.2,67.1,30.07,SE,130,0.0,0.0,76,0.00,CLR,,0.37,WeatherDisplay:10.37,2013-08-20 00:52:00,
2013-08-19 20:57:00,75.0,67.3,30.07,SE,130,0.0,0.0,77,0.00,CLR,,0.37,WeatherDisplay:10.37,2013-08-20 00:57:00,
2013-08-19 21:02:00,74.8,67.1,30.07,SE,130,0.0,0.0,77,0.00,CLR,,0.37,WeatherDisplay:10.37,2013-08-20 01:02:00,
2013-08-19 21:07:00,74.6,67.3,30.07,SE,130,0.0,0.0,78,0.00,CLR,,0.37,WeatherDisplay:10.37,2013-08-20 01:07:00,
2013-08-19 21:12:00,74.3,67.0,30.07,SE,130,0.0,0.0,78,0.00,CLR,,0.37,WeatherDisplay:10.37,2013-08-20 01:12:00,
2013-08-19 21:17:00,74.2,67.3,30.07,SE,130,0.0,0.0,79,0.00,CLR,,0.37,WeatherDisplay:10.37,2013-08-20 01:17:00,
2013-08-19 21:22:00,74.0,67.1,30.08,SE,130,0.0,0.0,79,0.00,CLR,,0.37,WeatherDisplay:10.37,2013-08-20 01:22:00,
2013-08-19 21:27:00,73.8,67.2,30.08,SE,130,0.0,0.0,80,0.00,CLR,,0.37,WeatherDisplay:10.37,2013-08-20 01:27:00,
2013-08-19 21:32:00,73.6,67.0,30.08,SE,129,0.0,0.0,80,0.00,CLR,,0.37,WeatherDisplay:10.37,2013-08-20 01:32:00,
2013-08-19 21:37:00,73.5,67.3,30.08,SE,130,0.0,0.0,81,0.00,CLR,,0.37,WeatherDisplay:10.37,2013-08-20 01:37:00,
2013-08-19 21:42:00,73.2,67.0,30.08,SE,129,0.0,0.0,81,0.00,CLR,,0.37,WeatherDisplay:10.37,2013-08-20 01:42:00,
2013-08-19 21:47:00,72.9,67.1,30.08,SE,130,0.0,0.0,82,0.00,CLR,,0.37,WeatherDisplay:10.37,2013-08-20 01:47:00,
2013-08-19 21:52:00,72.7,66.9,30.08,SE,130,0.0,0.0,82,0.00,CLR,,0.37,WeatherDisplay:10.37,2013-08-20 01:52:00,
2013-08-19 21:57:00,72.4,66.9,30.09,SE,130,0.0,0.0,83,0.00,CLR,,0.37,WeatherDisplay:10.37,2013-08-20 01:57:00,
2013-08-19 22:02:00,72.2,66.7,30.09,SE,130,0.0,0.0,83,0.00,CLR,,0.37,WeatherDisplay:10.37,2013-08-20 02:02:00,
2013-08-19 22:07:00,72.2,67.1,30.09,SE,130,0.0,0.0,84,0.00,CLR,,0.37,WeatherDisplay:10.37,2013-08-20 02:07:00,
2013-08-19 22:12:00,72.1,67.0,30.09,SE,129,0.0,0.0,84,0.00,CLR,,0.37,WeatherDisplay:10.37,2013-08-20 02:12:00,
2013-08-19 22:17:00,72.0,66.6,30.09,SE,130,0.0,0.0,83,0.00,CLR,,0.37,WeatherDisplay:10.37,2013-08-20 02:17:00,
2013-08-19 22:22:00,71.8,66.7,30.09,SE,129,0.0,0.0,84,0.00,CLR,,0.37,WeatherDisplay:10.37,2013-08-20 02:22:00,
2013-08-19 22:27:00,71.7,66.6,30.09,SE,129,0.0,0.0,84,0.00,CLR,,0.37,WeatherDisplay:10.37,2013-08-20 02:27:00,
2013-08-19 22:32:00,71.6,66.5,30.09,SE,129,0.0,0.0,84,0.00,CLR,,0.37,WeatherDisplay:10.37,2013-08-20 02:32:00,
2013-08-19 22:37:00,71.6,66.5,30.10,SE,130,0.0,0.0,84,0.00,CLR,,0.37,WeatherDisplay:10.37,2013-08-20 02:37:00,
2013-08-19 22:42:00,71.5,66.1,30.10,SE,130,0.0,0.0,83,0.00,CLR,,0.37,WeatherDisplay:10.37,2013-08-20 02:42:00,
2013-08-19 22:47:00,71.4,66.0,30.10,SE,130,0.0,0.0,83,0.00,CLR,,0.37,WeatherDisplay:10.37,2013-08-20 02:47:00,
2013-08-19 22:52:00,71.3,65.9,30.10,SE,129,0.0,0.0,83,0.00,CLR,,0.37,WeatherDisplay:10.37,2013-08-20 02:52:00,
2013-08-19 22:57:00,71.3,65.9,30.10,SE,130,0.0,0.0,83,0.00,CLR,,0.37,WeatherDisplay:10.37,2013-08-20 02:57:00,
2013-08-19 23:02:00,71.3,65.9,30.10,SE,130,0.0,0.0,83,0.00,CLR,,0.37,WeatherDisplay:10.37,2013-08-20 03:02:00,
2013-08-19 23:07:00,71.3,65.9,30.10,SE,129,0.0,0.0,83,0.00,CLR,,0.37,WeatherDisplay:10.37,2013-08-20 03:07:00,
2013-08-19 23:12:00,71.3,65.9,30.10,SE,130,0.0,0.0,83,0.00,CLR,,0.37,WeatherDisplay:10.37,2013-08-20 03:12:00,
2013-08-19 23:17:00,71.3,65.9,30.10,SE,130,0.0,0.0,83,0.00,CLR,,0.37,WeatherDisplay:10.37,2013-08-20 03:17:00,
2013-08-19 23:22:00,71.3,65.9,30.10,SE,129,0.0,0.0,83,0.00,CLR,,0.37,WeatherDisplay:10.37,2013-08-20 03:22:00,
2013-08-19 23:27:00,71.3,65.9,30.10,SE,129,0.0,0.0,83,0.00,CLR,,0.37,WeatherDisplay:10.37,2013-08-20 03:27:00,
2013-08-19 23:32:00,71.3,65.9,30.10,SE,130,0.0,0.0,83,0.00,CLR,,0.37,WeatherDisplay:10.37,2013-08-20 03:32:00,
2013-08-19 23:37:00,71.3,65.9,30.10,SE,129,0.0,0.0,83,0.00,CLR,,0.37,WeatherDisplay:10.37,2013-08-20 03:37:00,
2013-08-19 23:42:00,71.3,65.9,30.10,SE,130,0.0,0.0,83,0.00,CLR,,0.37,WeatherDisplay:10.37,2013-08-20 03:42:00,
2013-08-19 23:47:00,71.3,65.9,30.10,SE,129,0.0,0.0,83,0.00,CLR,,0.37,WeatherDisplay:10.37,2013-08-20 03:47:00,
2013-08-19 23:52:00,71.3,65.9,30.10,SE,130,1.1,0.0,83,0.00,CLR,,0.37,WeatherDisplay:10.37,2013-08-20 03:52:00,
2013-08-19 23:57:00,71.3,65.9,30.10,SE,130,0.0,0.0,83,0.00,CLR,,0.37,WeatherDisplay:10.37,2013-08-20 03:57:00,